createdAt,value
2022-09-18T00:01:33.737Z,6.03
2022-09-18T00:04:03.969Z,4.63
2022-09-18T00:06:34.247Z,5.00
2022-09-18T00:09:03.505Z,3.93
2022-09-18T00:11:35.308Z,3.00
2022-09-18T00:14:04.581Z,4.03
2022-09-18T00:16:32.030Z,4.20
2022-09-18T00:18:59.965Z,3.97
2022-09-18T00:21:28.932Z,4.60
2022-09-18T00:23:58.693Z,4.27
2022-09-18T00:26:26.630Z,5.03
2022-09-18T00:28:59.461Z,5.50
2022-09-18T00:31:30.204Z,5.07
2022-09-18T00:34:00.690Z,5.17
2022-09-18T00:36:32.706Z,4.83
2022-09-18T00:39:00.440Z,5.00
2022-09-18T00:41:31.841Z,4.30
2022-09-18T00:44:37.931Z,4.23
2022-09-18T00:47:16.306Z,4.90
2022-09-18T00:49:56.456Z,6.50
2022-09-18T00:52:28.877Z,7.80
2022-09-18T00:55:09.819Z,6.23
2022-09-18T00:57:43.515Z,7.53
2022-09-18T01:00:12.369Z,7.00
2022-09-18T01:02:41.418Z,7.97
2022-09-18T01:05:10.514Z,7.03
2022-09-18T01:07:52.754Z,6.23
2022-09-18T01:10:59.135Z,6.40
2022-09-18T01:13:59.200Z,4.57
2022-09-18T01:16:40.242Z,4.90
2022-09-18T01:19:52.621Z,4.80
2022-09-18T01:22:54.159Z,4.50
2022-09-18T01:25:27.473Z,4.17
2022-09-18T01:28:19.480Z,4.10
2022-09-18T01:30:50.669Z,4.07
2022-09-18T01:33:33.504Z,3.73
2022-09-18T01:36:05.015Z,4.27
2022-09-18T01:38:41.344Z,3.93
2022-09-18T01:41:16.970Z,4.10
2022-09-18T01:43:48.621Z,3.93
2022-09-18T01:46:19.929Z,3.00
2022-09-18T01:48:57.944Z,3.27
2022-09-18T01:51:32.211Z,3.40
2022-09-18T01:54:06.146Z,3.10
2022-09-18T01:56:51.403Z,2.83
2022-09-18T01:59:25.460Z,3.10
2022-09-18T02:02:05.256Z,3.00
2022-09-18T02:04:37.705Z,3.03
2022-09-18T02:07:19.559Z,2.73
2022-09-18T02:09:48.253Z,2.93
2022-09-18T02:12:19.606Z,2.40
2022-09-18T02:14:56.231Z,2.20
2022-09-18T02:17:55.551Z,2.87
2022-09-18T02:20:31.333Z,2.77
2022-09-18T02:23:03.395Z,2.67
2022-09-18T02:25:38.121Z,2.07
2022-09-18T02:28:07.397Z,2.07
2022-09-18T02:30:39.223Z,2.33
2022-09-18T02:33:27.117Z,2.40
2022-09-18T02:36:10.683Z,2.30
2022-09-18T02:38:53.229Z,1.93
2022-09-18T02:41:49.624Z,2.17
2022-09-18T02:44:30.057Z,1.93
2022-09-18T02:47:11.258Z,1.77
2022-09-18T02:49:53.236Z,2.73
2022-09-18T02:52:32.555Z,1.83
2022-09-18T02:55:13.118Z,2.30
2022-09-18T02:57:55.605Z,2.03
2022-09-18T03:00:24.048Z,2.23
2022-09-18T03:02:51.997Z,1.90
2022-09-18T03:05:32.569Z,2.27
2022-09-18T03:08:02.780Z,2.00
2022-09-18T03:10:31.811Z,2.30
2022-09-18T03:12:59.268Z,2.47
2022-09-18T03:15:27.073Z,1.67
2022-09-18T03:17:54.379Z,2.00
2022-09-18T03:20:21.670Z,1.93
2022-09-18T03:22:50.055Z,1.80
2022-09-18T03:25:17.886Z,2.63
2022-09-18T03:27:45.298Z,2.17
2022-09-18T03:30:18.380Z,2.00
2022-09-18T03:32:45.903Z,1.50
2022-09-18T03:35:13.609Z,1.90
2022-09-18T03:37:41.075Z,1.77
2022-09-18T03:40:10.984Z,1.70
2022-09-18T03:42:38.440Z,2.23
2022-09-18T03:45:09.316Z,1.83
2022-09-18T03:47:36.942Z,1.80
2022-09-18T03:50:07.957Z,1.90
2022-09-18T03:52:37.510Z,2.00
2022-09-18T03:55:32.522Z,2.80
2022-09-18T03:58:18.991Z,2.00
2022-09-18T04:01:05.343Z,1.67
2022-09-18T04:03:44.938Z,1.80
2022-09-18T04:06:30.559Z,1.70
2022-09-18T04:09:11.449Z,1.63
2022-09-18T04:11:44.889Z,1.60
2022-09-18T04:14:13.299Z,1.93
2022-09-18T04:16:40.881Z,3.10
2022-09-18T04:19:09.400Z,2.47
2022-09-18T04:21:39.083Z,2.10
2022-09-18T04:24:06.901Z,2.20
2022-09-18T04:26:37.662Z,2.37
2022-09-18T04:29:06.282Z,1.70
2022-09-18T04:31:35.562Z,1.73
2022-09-18T04:34:08.050Z,1.60
2022-09-18T04:36:36.280Z,2.10
2022-09-18T04:39:04.558Z,2.67
2022-09-18T04:41:32.246Z,2.57
2022-09-18T04:43:59.691Z,2.10
2022-09-18T04:46:26.997Z,2.70
2022-09-18T04:48:54.722Z,1.93
2022-09-18T04:51:25.847Z,1.70
2022-09-18T04:53:53.319Z,1.80
2022-09-18T04:56:20.856Z,2.57
2022-09-18T04:58:51.352Z,2.37
2022-09-18T05:01:19.404Z,2.30
2022-09-18T05:03:47.343Z,5.80
2022-09-18T05:06:24.493Z,8.17
2022-09-18T05:08:52.357Z,8.93
2022-09-18T05:11:20.711Z,7.37
2022-09-18T05:13:49.264Z,5.77
2022-09-18T05:16:17.432Z,5.27
2022-09-18T05:18:56.925Z,4.47
2022-09-18T05:21:25.332Z,2.40
2022-09-18T05:23:52.654Z,2.40
2022-09-18T05:26:19.991Z,9.10
2022-09-18T05:28:51.005Z,3.23
2022-09-18T05:31:20.635Z,2.80
2022-09-18T05:33:48.263Z,2.10
2022-09-18T05:36:15.648Z,2.57
2022-09-18T05:38:46.874Z,2.70
2022-09-18T05:41:14.469Z,2.23
2022-09-18T05:43:45.171Z,2.73
2022-09-18T05:46:14.845Z,2.53
2022-09-18T05:48:53.086Z,2.77
2022-09-18T05:51:20.566Z,2.40
2022-09-18T05:53:48.713Z,3.03
2022-09-18T05:56:21.987Z,2.63
2022-09-18T05:58:50.250Z,3.33
2022-09-18T06:01:17.931Z,3.27
2022-09-18T06:04:10.022Z,2.87
2022-09-18T06:06:45.371Z,3.10
2022-09-18T06:09:15.688Z,3.57
2022-09-18T06:11:43.041Z,3.27
2022-09-18T06:14:10.791Z,3.50
2022-09-18T06:16:42.337Z,3.30
2022-09-18T06:19:11.039Z,3.20
2022-09-18T06:21:38.770Z,3.23
2022-09-18T06:24:12.701Z,3.33
2022-09-18T06:26:49.998Z,3.60
2022-09-18T06:29:17.778Z,4.23
2022-09-18T06:31:50.545Z,3.63
2022-09-18T06:34:27.972Z,4.20
2022-09-18T06:37:03.029Z,3.93
2022-09-18T06:39:52.030Z,4.50
2022-09-18T06:42:45.282Z,3.83
2022-09-18T06:45:30.060Z,4.47
2022-09-18T06:48:04.270Z,4.10
2022-09-18T06:50:33.679Z,4.37
2022-09-18T06:53:11.454Z,4.17
2022-09-18T06:55:49.149Z,5.47
2022-09-18T06:58:17.988Z,4.20
2022-09-18T07:00:46.423Z,4.30
2022-09-18T07:03:20.216Z,4.17
2022-09-18T07:06:14.357Z,4.23
2022-09-18T07:08:45.564Z,4.93
2022-09-18T07:11:24.211Z,4.70
2022-09-18T07:13:53.407Z,4.00
2022-09-18T07:16:20.865Z,4.03
2022-09-18T07:18:49.040Z,4.57
2022-09-18T07:21:19.761Z,4.57
2022-09-18T07:23:47.275Z,4.90
2022-09-18T07:26:14.970Z,4.80
2022-09-18T07:28:42.974Z,4.20
2022-09-18T07:31:17.350Z,4.30
2022-09-18T07:33:52.012Z,4.00
2022-09-18T07:36:21.124Z,3.80
2022-09-18T07:38:53.102Z,4.60
2022-09-18T07:41:22.076Z,4.13
2022-09-18T07:43:50.903Z,4.27
2022-09-18T07:46:19.273Z,4.67
2022-09-18T07:48:50.153Z,4.83
2022-09-18T07:51:26.402Z,4.40
2022-09-18T07:53:55.972Z,4.10
2022-09-18T07:56:46.878Z,4.67
2022-09-18T07:59:19.081Z,3.97
2022-09-18T08:01:51.607Z,5.07
2022-09-18T08:04:19.026Z,4.00
2022-09-18T08:07:15.829Z,4.67
2022-09-18T08:10:12.202Z,6.50
2022-09-18T08:13:04.391Z,5.73
2022-09-18T08:16:04.210Z,4.50
2022-09-18T08:18:50.799Z,4.80
2022-09-18T08:21:40.818Z,3.70
2022-09-18T08:24:12.152Z,4.07
2022-09-18T08:26:40.095Z,4.17
2022-09-18T08:29:08.377Z,3.63
2022-09-18T08:31:38.589Z,4.03
2022-09-18T08:34:11.081Z,3.90
2022-09-18T08:36:39.825Z,3.67
2022-09-18T08:39:22.968Z,4.07
2022-09-18T08:42:57.470Z,3.63
2022-09-18T08:45:45.965Z,4.10
2022-09-18T08:48:24.779Z,3.83
2022-09-18T08:51:31.041Z,4.13
2022-09-18T08:54:27.886Z,3.90
2022-09-18T08:57:29.004Z,4.23
2022-09-18T09:00:19.799Z,3.80
2022-09-18T09:03:13.520Z,4.93
2022-09-18T09:05:53.770Z,5.83
2022-09-18T09:08:43.713Z,4.73
2022-09-18T09:11:38.239Z,4.53
2022-09-18T09:14:56.692Z,5.83
2022-09-18T09:17:50.103Z,6.07
2022-09-18T09:20:30.829Z,6.10
2022-09-18T09:23:15.119Z,4.70
2022-09-18T09:26:06.690Z,5.70
2022-09-18T09:29:15.867Z,6.17
2022-09-18T09:31:55.236Z,6.23
2022-09-18T09:34:57.822Z,5.13
2022-09-18T09:37:46.300Z,5.50
2022-09-18T09:40:45.447Z,5.37
2022-09-18T09:43:29.585Z,6.10
2022-09-18T09:46:06.997Z,5.57
2022-09-18T09:48:52.275Z,5.90
2022-09-18T09:51:58.929Z,5.10
2022-09-18T09:54:28.498Z,4.93
2022-09-18T09:57:13.093Z,5.43
2022-09-18T10:00:14.391Z,4.93
2022-09-18T10:07:40.935Z,8.00
2022-09-18T10:10:15.975Z,5.03
2022-09-18T10:12:59.020Z,5.27
2022-09-18T10:15:42.358Z,10.50
2022-09-18T10:18:26.394Z,8.23
2022-09-18T10:21:02.497Z,7.00
2022-09-18T10:23:48.747Z,5.33
2022-09-18T10:26:58.695Z,6.33
2022-09-18T10:29:27.504Z,6.63
2022-09-18T10:32:01.236Z,6.37
2022-09-18T10:34:38.290Z,5.27
2022-09-18T10:37:31.212Z,6.93
2022-09-18T10:40:05.432Z,6.07
2022-09-18T10:42:37.686Z,6.87
2022-09-18T10:45:42.200Z,6.87
2022-09-18T10:48:28.407Z,7.37
2022-09-18T10:51:00.030Z,6.47
2022-09-18T10:54:25.498Z,6.47
2022-09-18T10:57:28.535Z,7.63
2022-09-18T10:59:59.544Z,7.93
2022-09-18T11:02:32.929Z,7.27
2022-09-18T11:05:03.099Z,7.17
2022-09-18T11:07:40.204Z,8.13
2022-09-18T11:10:10.525Z,5.97
2022-09-18T11:12:52.363Z,7.23
2022-09-18T11:15:36.986Z,6.33
2022-09-18T11:18:14.108Z,6.30
2022-09-18T11:20:45.667Z,5.83
2022-09-18T11:23:34.122Z,5.87
2022-09-18T11:26:28.132Z,5.40
2022-09-18T11:29:19.425Z,6.67
2022-09-18T11:31:56.142Z,5.10
2022-09-18T11:34:40.091Z,4.40
2022-09-18T11:37:25.051Z,4.13
2022-09-18T11:40:00.551Z,3.38
2022-09-18T11:42:30.337Z,4.00
2022-09-18T11:45:49.584Z,3.80
2022-09-18T11:48:34.774Z,3.20
2022-09-18T11:51:10.163Z,4.30
2022-09-18T11:53:43.503Z,3.22
2022-09-18T11:56:19.533Z,3.95
2022-09-18T11:59:00.602Z,3.65
2022-09-18T12:01:49.284Z,3.05
2022-09-18T12:04:49.713Z,2.50
2022-09-18T12:07:52.639Z,3.40
2022-09-18T12:10:45.472Z,3.20
2022-09-18T12:13:32.627Z,2.88
2022-09-18T12:16:13.115Z,2.50
2022-09-18T12:18:59.570Z,2.05
2022-09-18T12:21:58.211Z,2.40
2022-09-18T12:24:26.092Z,2.22
2022-09-18T12:27:11.160Z,1.98
2022-09-18T12:29:57.886Z,1.65
2022-09-18T12:33:06.020Z,2.00
2022-09-18T12:36:04.963Z,2.60
2022-09-18T12:38:57.595Z,2.58
2022-09-18T12:41:42.697Z,2.45
2022-09-18T12:44:35.489Z,2.53
2022-09-18T12:47:25.875Z,3.60
2022-09-18T12:50:12.186Z,4.35
2022-09-18T12:52:55.172Z,4.80
2022-09-18T12:55:46.779Z,8.50
2022-09-18T12:58:34.413Z,9.53
2022-09-18T13:01:13.987Z,61.03
2022-09-18T13:03:44.340Z,19.90
2022-09-18T13:06:16.598Z,6.47
2022-09-18T13:08:50.562Z,5.87
2022-09-18T13:11:33.177Z,17.27
2022-09-18T13:14:14.986Z,18.63
2022-09-18T13:16:50.123Z,18.77
2022-09-18T13:19:29.698Z,18.70
2022-09-18T13:22:00.276Z,11.43
2022-09-18T13:24:34.284Z,33.70
2022-09-18T13:27:05.182Z,40.07
2022-09-18T13:29:53.764Z,24.53
2022-09-18T13:32:42.064Z,8.07
2022-09-18T13:35:21.135Z,34.45
2022-09-18T13:38:04.180Z,7.20
2022-09-18T13:40:56.515Z,27.13
2022-09-18T13:43:28.739Z,8.40
2022-09-18T13:46:03.439Z,20.50
2022-09-18T13:48:39.796Z,11.50
2022-09-18T13:51:23.949Z,23.90
2022-09-18T13:54:13.845Z,18.92
2022-09-18T13:57:06.741Z,14.10
2022-09-18T14:00:00.553Z,18.08
2022-09-18T14:02:40.618Z,12.98
2022-09-18T14:05:30.074Z,11.40
2022-09-18T14:08:23.932Z,10.43
2022-09-18T14:11:24.069Z,24.27
2022-09-18T14:13:59.396Z,10.77
2022-09-18T14:16:42.129Z,15.97
2022-09-18T14:19:34.814Z,13.97
2022-09-18T14:22:10.836Z,5.37
2022-09-18T14:24:55.131Z,8.27
2022-09-18T14:27:54.962Z,10.80
2022-09-18T14:30:31.335Z,16.13
2022-09-18T14:33:24.322Z,5.83
2022-09-18T14:36:17.098Z,9.07
2022-09-18T14:38:46.119Z,10.23
2022-09-18T14:41:31.103Z,12.00
2022-09-18T14:44:16.157Z,10.20
2022-09-18T14:47:10.432Z,8.70
2022-09-18T14:49:45.317Z,13.13
2022-09-18T14:52:32.385Z,63.13
2022-09-18T14:55:13.227Z,32.23
2022-09-18T14:58:23.198Z,11.30
2022-09-18T15:00:59.674Z,9.80
2022-09-18T15:03:37.932Z,7.03
2022-09-18T15:06:25.700Z,4.57
2022-09-18T15:08:58.091Z,3.57
2022-09-18T15:11:46.669Z,4.00
2022-09-18T15:14:45.580Z,3.40
2022-09-18T15:17:19.449Z,4.10
2022-09-18T15:20:17.073Z,5.23
2022-09-18T15:25:53.540Z,6.23
2022-09-18T15:28:27.872Z,11.07
2022-09-18T15:31:05.164Z,12.87
2022-09-18T15:34:11.820Z,14.07
2022-09-18T15:37:03.170Z,14.27
2022-09-18T15:39:38.465Z,18.70
2022-09-18T15:42:18.275Z,14.97
2022-09-18T15:44:54.662Z,33.30
2022-09-18T15:47:35.198Z,56.43
2022-09-18T15:50:33.627Z,71.37
2022-09-18T15:53:23.569Z,67.80
2022-09-18T15:56:01.326Z,34.63
2022-09-18T15:58:38.557Z,42.23
2022-09-18T16:01:08.924Z,40.00
2022-09-18T16:03:39.841Z,44.57
2022-09-18T16:06:24.349Z,34.73
2022-09-18T16:08:55.640Z,39.60
2022-09-18T16:11:40.775Z,20.33
2022-09-18T16:14:36.658Z,27.90
2022-09-18T16:17:31.920Z,19.63
2022-09-18T16:20:21.234Z,16.20
2022-09-18T16:22:51.997Z,14.50
2022-09-18T16:25:27.660Z,13.37
2022-09-18T16:27:58.072Z,16.30
2022-09-18T16:30:28.455Z,17.03
2022-09-18T16:33:03.729Z,22.37
2022-09-18T16:35:35.942Z,174.03
2022-09-18T16:38:04.424Z,82.40
2022-09-18T16:40:32.500Z,178.67
2022-09-18T16:43:01.193Z,121.23
2022-09-18T16:45:29.956Z,51.17
2022-09-18T16:48:00.692Z,16.33
2022-09-18T16:50:31.389Z,8.03
2022-09-18T16:53:01.550Z,7.30
2022-09-18T16:55:32.826Z,12.43
2022-09-18T16:58:03.251Z,13.60
2022-09-18T17:00:33.994Z,11.80
2022-09-18T17:03:02.480Z,5.30
2022-09-18T17:05:33.232Z,2.97
2022-09-18T17:08:04.769Z,3.13
2022-09-18T17:10:34.444Z,3.50
2022-09-18T17:13:04.864Z,3.20
2022-09-18T17:15:34.925Z,3.60
2022-09-18T17:18:02.931Z,3.13
2022-09-18T17:20:33.474Z,2.70
2022-09-18T17:23:01.983Z,2.93
2022-09-18T17:25:30.144Z,3.40
2022-09-18T17:28:00.079Z,3.20
2022-09-18T17:30:31.074Z,4.07
2022-09-18T17:33:00.522Z,4.83
2022-09-18T17:35:30.462Z,4.57
2022-09-18T17:37:59.402Z,4.33
2022-09-18T17:40:27.443Z,5.27
2022-09-18T17:42:58.130Z,4.23
2022-09-18T17:45:27.974Z,8.67
2022-09-18T17:48:02.616Z,17.83
2022-09-18T17:50:35.483Z,10.40
2022-09-18T17:53:04.233Z,8.70
2022-09-18T17:55:35.601Z,6.87
2022-09-18T17:58:17.515Z,6.00
2022-09-18T18:00:48.101Z,7.33
2022-09-18T18:03:16.734Z,7.67
2022-09-18T18:05:53.570Z,4.07
2022-09-18T18:08:21.479Z,4.10
2022-09-18T18:10:50.180Z,3.10
2022-09-18T18:13:21.661Z,2.87
2022-09-18T18:15:51.364Z,3.13
2022-09-18T18:18:20.626Z,3.20
2022-09-18T18:20:53.306Z,3.53
2022-09-18T18:23:27.562Z,3.23
2022-09-18T18:25:55.925Z,3.13
2022-09-18T18:28:26.306Z,2.83
2022-09-18T18:31:08.040Z,3.30
2022-09-18T18:33:38.526Z,3.00
2022-09-18T18:36:14.691Z,3.33
2022-09-18T18:38:46.127Z,3.13
2022-09-18T18:41:16.357Z,16.30
2022-09-18T18:44:03.580Z,9.90
2022-09-18T18:46:36.428Z,10.37
2022-09-18T18:49:10.235Z,9.10
2022-09-18T18:51:46.438Z,9.23
2022-09-18T18:54:20.885Z,7.80
2022-09-18T18:56:49.384Z,9.03
2022-09-18T18:59:19.695Z,8.03
2022-09-18T19:01:47.790Z,8.20
2022-09-18T19:04:22.248Z,6.87
2022-09-18T19:06:50.728Z,7.37
2022-09-18T19:09:25.436Z,8.23
2022-09-18T19:11:55.631Z,8.20
2022-09-18T19:14:32.525Z,8.13
2022-09-18T19:17:01.978Z,11.47
2022-09-18T19:19:31.384Z,15.70
2022-09-18T19:22:03.075Z,13.93
2022-09-18T19:24:34.424Z,16.07
2022-09-18T19:27:03.447Z,15.60
2022-09-18T19:29:32.016Z,18.43
2022-09-18T19:32:00.583Z,18.50
2022-09-18T19:34:29.082Z,18.53
2022-09-18T19:36:58.210Z,19.97
2022-09-18T19:39:26.690Z,18.40
2022-09-18T19:42:12.527Z,18.57
2022-09-18T19:45:06.762Z,18.50
2022-09-18T19:47:47.354Z,19.60
2022-09-18T19:50:25.378Z,13.17
2022-09-18T19:52:53.226Z,14.77
2022-09-18T19:55:21.484Z,13.93
2022-09-18T19:57:52.018Z,13.77
2022-09-18T20:00:20.271Z,12.40
2022-09-18T20:02:47.900Z,12.13
2022-09-18T20:05:16.136Z,11.83
2022-09-18T20:07:44.562Z,11.73
2022-09-18T20:10:14.351Z,12.07
2022-09-18T20:12:42.626Z,10.80
2022-09-18T20:15:11.445Z,10.37
2022-09-18T20:17:39.462Z,8.97
2022-09-18T20:20:15.641Z,9.27
2022-09-18T20:22:44.228Z,9.13
2022-09-18T20:25:12.414Z,9.97
2022-09-18T20:27:41.923Z,9.57
2022-09-18T20:30:12.802Z,9.40
2022-09-18T20:32:40.288Z,8.77
2022-09-18T20:35:08.133Z,9.27
2022-09-18T20:37:36.323Z,10.20
2022-09-18T20:40:06.084Z,8.97
2022-09-18T20:42:34.694Z,8.40
2022-09-18T20:45:02.789Z,7.67
2022-09-18T20:47:35.478Z,7.67
2022-09-18T20:50:06.750Z,9.70
2022-09-18T20:52:42.211Z,7.93
2022-09-18T20:55:12.724Z,8.27
2022-09-18T20:57:41.305Z,8.70
2022-09-18T21:00:11.076Z,6.80
2022-09-18T21:02:38.517Z,8.13
2022-09-18T21:05:11.678Z,7.10
2022-09-18T21:07:40.030Z,7.53
2022-09-18T21:10:09.941Z,8.10
2022-09-18T21:12:40.201Z,8.17
2022-09-18T21:15:11.414Z,8.53
2022-09-18T21:17:40.359Z,7.73
2022-09-18T21:20:09.562Z,8.53
2022-09-18T21:22:57.655Z,7.67
2022-09-18T21:25:26.568Z,7.77
2022-09-18T21:27:55.166Z,8.10
2022-09-18T21:30:25.798Z,8.43
2022-09-18T21:32:55.800Z,7.97
2022-09-18T21:35:23.638Z,7.73
2022-09-18T21:37:51.997Z,7.03
2022-09-18T21:40:19.885Z,7.67
2022-09-18T21:42:47.799Z,6.47
2022-09-18T21:45:20.780Z,7.57
2022-09-18T21:47:50.184Z,7.57
2022-09-18T21:50:18.422Z,8.73
2022-09-18T21:52:46.250Z,7.70
2022-09-18T21:55:14.793Z,7.30
2022-09-18T21:57:42.364Z,7.83
2022-09-18T22:00:10.430Z,7.97
2022-09-18T22:02:43.646Z,7.00
2022-09-18T22:05:12.342Z,8.00
2022-09-18T22:07:41.400Z,8.30
2022-09-18T22:10:09.717Z,7.17
2022-09-18T22:12:39.038Z,9.30
2022-09-18T22:15:07.531Z,12.10
2022-09-18T22:17:35.783Z,9.23
2022-09-18T22:20:04.429Z,8.97
2022-09-18T22:22:32.548Z,8.07
2022-09-18T22:25:00.409Z,8.10
2022-09-18T22:27:27.706Z,8.80
2022-09-18T22:29:56.036Z,8.37
2022-09-18T22:32:24.267Z,8.27
2022-09-18T22:34:53.235Z,8.97
2022-09-18T22:37:20.623Z,7.80
2022-09-18T22:39:48.041Z,8.00
2022-09-18T22:42:16.181Z,7.67
2022-09-18T22:44:44.836Z,9.23
2022-09-18T22:47:12.903Z,9.20
2022-09-18T22:49:40.406Z,7.10
2022-09-18T22:52:07.810Z,7.13
2022-09-18T22:54:35.963Z,6.70
2022-09-18T22:57:03.935Z,7.50
2022-09-18T22:59:31.259Z,7.50
2022-09-18T23:02:03.158Z,6.37
2022-09-18T23:04:33.801Z,6.67
2022-09-18T23:07:02.606Z,7.33
2022-09-18T23:09:31.444Z,7.23
2022-09-18T23:11:59.924Z,8.10
2022-09-18T23:14:29.586Z,7.63
2022-09-18T23:16:58.564Z,7.87
2022-09-18T23:19:28.674Z,6.17
2022-09-18T23:21:58.392Z,6.00
2022-09-18T23:24:26.458Z,5.97
2022-09-18T23:26:57.542Z,6.97
2022-09-18T23:29:26.290Z,7.70
2022-09-18T23:31:55.331Z,6.83
2022-09-18T23:34:24.503Z,6.93
2022-09-18T23:36:54.360Z,7.40
2022-09-18T23:39:32.352Z,7.33
2022-09-18T23:42:01.718Z,6.83
2022-09-18T23:44:31.436Z,6.90
2022-09-18T23:47:00.253Z,7.33
2022-09-18T23:49:29.250Z,7.60
2022-09-18T23:51:57.694Z,7.53
2022-09-18T23:54:27.750Z,7.97
2022-09-18T23:56:55.708Z,8.20
2022-09-18T23:59:24.896Z,9.13
